Time;durP1;ratioP1;P1;durP2;ratioP2;P2;SDS_P1;SDS_P2;PMS_P1;PMS_P2;Temp;Humidity;BMP_temperature;BMP_pressure;BME280_temperature;BME280_humidity;BME280_pressure;Samples;Min_cycle;Max_cycle;Signal;HPM_P1;HPM_P2
2022/01/02 00:01:45;;;;;;;7.80;4.20;;;;;;;10.62;82.61;101736.88;5050745;28;20210;-65
2022/01/02 00:04:16;;;;;;;11.20;4.90;;;;;;;10.62;82.25;101736.88;5051353;28;20041;-65
2022/01/02 00:06:49;;;;;;;10.70;4.45;;;;;;;10.61;82.41;101741.34;5046566;28;20036;-64
2022/01/02 00:09:26;;;;;;;7.15;4.57;;;;;;;10.63;82.06;101758.03;5050446;28;20127;-63
2022/01/02 00:11:54;;;;;;;9.25;4.70;;;;;;;10.64;81.92;101753.56;5051646;28;20489;-64
2022/01/02 00:14:25;;;;;;;7.22;4.38;;;;;;;10.65;81.72;101758.81;5050808;28;20071;-64
2022/01/02 00:16:50;;;;;;;8.05;4.35;;;;;;;10.67;81.78;101766.69;5051451;28;20566;-65
2022/01/02 00:19:27;;;;;;;9.43;4.70;;;;;;;10.68;81.77;101760.44;5049565;28;20115;-66
2022/01/02 00:21:55;;;;;;;8.45;5.05;;;;;;;10.68;81.81;101755.13;5051767;28;20090;-65
2022/01/02 00:24:21;;;;;;;9.25;4.53;;;;;;;10.69;81.90;101759.47;5050468;28;20062;-65
2022/01/02 00:26:50;;;;;;;7.63;4.13;;;;;;;10.69;81.89;101757.69;5051364;28;20464;-66
2022/01/02 00:29:16;;;;;;;8.80;4.65;;;;;;;10.72;81.56;101745.97;5050600;28;20047;-67
2022/01/02 00:31:42;;;;;;;11.55;4.22;;;;;;;10.72;81.83;101727.38;5051136;28;20507;-66
2022/01/02 00:34:09;;;;;;;8.52;4.43;;;;;;;10.72;81.96;101730.91;5051263;28;20371;-65
2022/01/02 00:36:36;;;;;;;10.95;4.28;;;;;;;10.73;82.85;101731.75;5051500;28;20032;-66
2022/01/02 00:39:03;;;;;;;7.38;4.10;;;;;;;10.75;82.85;101743.13;5050787;28;20146;-65
2022/01/02 00:41:38;;;;;;;12.73;4.47;;;;;;;10.73;83.46;101737.91;5050012;28;20036;-63
2022/01/02 00:44:16;;;;;;;9.18;4.68;;;;;;;10.72;83.85;101746.84;5051021;28;20033;-65
2022/01/02 00:46:52;;;;;;;12.32;4.38;;;;;;;10.68;84.70;101740.00;5051319;28;20483;-65
2022/01/02 00:49:24;;;;;;;10.00;4.55;;;;;;;10.67;85.48;101740.94;5051877;28;20509;-65
2022/01/02 00:51:55;;;;;;;7.88;4.50;;;;;;;10.63;85.69;101735.94;5056952;28;20037;-67
2022/01/02 00:54:23;;;;;;;8.82;4.15;;;;;;;10.63;85.67;101733.28;5065610;28;20033;-65
2022/01/02 00:56:51;;;;;;;13.17;4.90;;;;;;;10.60;86.73;101730.81;5069156;28;20029;-67
2022/01/02 00:59:28;;;;;;;9.98;4.75;;;;;;;10.58;86.77;101732.72;5069593;28;20029;-66
2022/01/02 01:02:03;;;;;;;9.23;4.97;;;;;;;10.54;87.56;101724.06;5070807;28;20036;-67
2022/01/02 01:04:32;;;;;;;11.60;4.68;;;;;;;10.51;87.71;101719.81;5070768;28;20461;-67
2022/01/02 01:07:05;;;;;;;8.68;4.30;;;;;;;10.50;88.41;101717.25;5072312;28;20081;-66
2022/01/02 01:09:33;;;;;;;8.93;4.43;;;;;;;10.45;88.50;101716.69;5060371;28;20029;-67
2022/01/02 01:12:00;;;;;;;9.18;4.63;;;;;;;10.44;88.73;101707.00;5073548;28;20029;-67
2022/01/02 01:14:27;;;;;;;12.23;4.80;;;;;;;10.41;88.98;101707.19;5065974;28;20017;-67
2022/01/02 01:16:53;;;;;;;8.98;4.70;;;;;;;10.39;89.24;101717.06;5072932;28;20096;-68
2022/01/02 01:19:19;;;;;;;7.65;4.63;;;;;;;10.36;89.53;101703.03;5073179;28;20040;-68
2022/01/02 01:21:45;;;;;;;10.32;4.53;;;;;;;10.34;90.01;101696.97;5074368;28;20005;-66
2022/01/02 01:24:10;;;;;;;9.55;4.60;;;;;;;10.31;89.89;101691.81;5072961;28;20044;-67
2022/01/02 01:26:35;;;;;;;9.60;4.63;;;;;;;10.29;90.06;101696.38;5071272;28;20029;-66
2022/01/02 01:29:00;;;;;;;13.15;4.68;;;;;;;10.28;90.25;101689.34;5072312;28;20048;-66
2022/01/02 01:31:26;;;;;;;10.50;4.55;;;;;;;10.28;90.18;101689.34;5069802;28;20043;-66
2022/01/02 01:33:51;;;;;;;10.45;4.85;;;;;;;10.24;90.43;101682.53;5070581;28;20168;-66
2022/01/02 01:36:16;;;;;;;10.88;4.80;;;;;;;10.25;90.68;101680.72;5068774;28;20072;-67
2022/01/02 01:38:41;;;;;;;8.35;4.47;;;;;;;10.23;90.94;101675.50;5068511;28;20033;-65
2022/01/02 01:41:14;;;;;;;10.02;4.55;;;;;;;10.20;91.04;101673.03;5067386;28;20029;-66
2022/01/02 01:43:52;;;;;;;12.25;5.55;;;;;;;10.17;91.12;101676.75;5066540;28;20383;-66
2022/01/02 01:46:18;;;;;;;7.20;4.32;;;;;;;10.17;91.22;101666.13;5068694;28;20055;-68
2022/01/02 01:48:51;;;;;;;10.95;5.07;;;;;;;10.13;91.39;101661.09;5069345;28;20037;-66
2022/01/02 01:51:16;;;;;;;10.48;5.32;;;;;;;10.13;91.40;101664.59;5070903;28;20461;-65
2022/01/02 01:53:42;;;;;;;12.18;4.90;;;;;;;10.12;91.31;101662.88;5071831;28;20108;-66
2022/01/02 01:56:07;;;;;;;10.23;5.07;;;;;;;10.13;91.70;101655.78;5071897;28;20067;-66
2022/01/02 01:58:32;;;;;;;9.50;4.85;;;;;;;10.12;91.67;101648.75;5069981;28;20033;-65
2022/01/02 02:00:57;;;;;;;9.85;4.95;;;;;;;10.10;91.48;101638.22;5068696;28;20029;-65
2022/01/02 02:03:23;;;;;;;9.77;4.97;;;;;;;10.11;91.81;101647.06;5066461;28;20041;-65
2022/01/02 02:05:48;;;;;;;12.00;4.90;;;;;;;10.11;91.76;101644.41;5068100;28;20043;-66
2022/01/02 02:08:13;;;;;;;10.35;4.88;;;;;;;10.10;91.88;101632.09;5067951;28;20104;-65
2022/01/02 02:10:40;;;;;;;11.38;4.63;;;;;;;10.10;91.94;101621.47;5067507;28;20029;-66
2022/01/02 02:13:06;;;;;;;13.18;4.82;;;;;;;10.11;91.89;101620.53;5067074;28;20534;-67
2022/01/02 02:15:32;;;;;;;11.15;4.53;;;;;;;10.10;91.75;101614.34;5065655;28;20036;-66
2022/01/02 02:17:57;;;;;;;9.35;5.13;;;;;;;10.09;91.91;101607.34;5065756;28;20021;-66
2022/01/02 02:20:31;;;;;;;12.18;5.05;;;;;;;10.10;91.81;101606.38;5065411;28;20109;-65
2022/01/02 02:22:57;;;;;;;8.82;4.40;;;;;;;10.11;91.84;101608.09;5064954;28;20025;-67
2022/01/02 02:25:27;;;;;;;13.15;4.72;;;;;;;10.14;91.63;101604.38;5065340;28;20025;-65
2022/01/02 02:27:57;;;;;;;11.23;4.72;;;;;;;10.12;91.85;101595.69;5064639;28;20494;-66
2022/01/02 02:30:25;;;;;;;13.00;4.85;;;;;;;10.14;91.71;101599.06;5062783;28;20021;-65
2022/01/02 02:32:53;;;;;;;13.68;4.95;;;;;;;10.15;91.73;101600.78;5065194;28;20052;-66
2022/01/02 02:35:18;;;;;;;10.18;4.57;;;;;;;10.15;91.76;101596.31;5064526;28;20033;-66
2022/01/02 02:37:45;;;;;;;10.65;4.82;;;;;;;10.15;91.91;101598.13;5066410;28;20029;-66
2022/01/02 02:40:13;;;;;;;10.85;4.85;;;;;;;10.15;92.00;101603.44;5061390;28;20024;-66
2022/01/02 02:42:47;;;;;;;11.88;5.00;;;;;;;10.15;92.20;101598.13;5066440;28;20029;-65
2022/01/02 02:51:18;;;;;;;11.75;4.85;;;;;;;10.15;92.31;101572.44;5064240;28;20395;-66
2022/01/02 02:53:44;;;;;;;;;;;;;;;10.19;91.50;101568.66;5064527;28;20051;-66
2022/01/02 02:56:18;;;;;;;11.82;5.13;;;;;;;10.16;91.84;101566.19;5063424;28;19913;-67
2022/01/02 02:58:44;;;;;;;13.25;5.20;;;;;;;10.15;92.29;101574.25;5060865;28;20035;-66
2022/01/02 03:01:15;;;;;;;15.65;5.00;;;;;;;10.12;92.65;101569.13;5061127;28;20395;-67
2022/01/02 03:03:42;;;;;;;13.57;5.32;;;;;;;10.15;92.37;101568.94;5061242;28;20056;-66
2022/01/02 03:06:09;;;;;;;11.63;5.07;;;;;;;10.15;92.55;101566.28;5059954;28;20029;-67
2022/01/02 03:08:35;;;;;;;13.57;4.72;;;;;;;10.16;92.53;101571.50;5059758;28;20081;-66
2022/01/02 03:11:01;;;;;;;13.00;5.20;;;;;;;10.17;92.55;101570.56;5061120;28;20041;-66
2022/01/02 03:13:26;;;;;;;10.25;4.90;;;;;;;10.18;92.73;101566.94;5060646;28;20043;-65
2022/01/02 03:15:52;;;;;;;10.50;5.10;;;;;;;10.19;92.72;101552.72;5062304;28;20529;-65
2022/01/02 03:18:17;;;;;;;13.43;5.38;;;;;;;10.21;92.69;101563.25;5060914;28;20025;-65
2022/01/02 03:20:43;;;;;;;11.23;5.10;;;;;;;10.22;92.76;101566.75;5061314;28;20029;-66
2022/01/02 03:23:08;;;;;;;13.07;5.68;;;;;;;10.21;92.90;101565.91;5062219;28;20029;-65
2022/01/02 03:25:33;;;;;;;18.25;5.82;;;;;;;10.22;93.03;101564.09;5061842;28;20081;-66
2022/01/02 03:27:58;;;;;;;10.77;5.28;;;;;;;10.23;93.03;101556.03;5059852;28;20031;-66
2022/01/02 03:30:24;;;;;;;17.15;5.68;;;;;;;10.23;93.07;101553.38;5061055;28;20043;-65
2022/01/02 03:32:49;;;;;;;11.95;5.75;;;;;;;10.23;92.97;101553.38;5062197;28;20127;-66
2022/01/02 03:35:14;;;;;;;15.10;5.70;;;;;;;10.22;93.17;101564.09;5061452;28;20059;-65
2022/01/02 03:37:40;;;;;;;16.58;5.35;;;;;;;10.23;93.57;101569.31;5060015;28;20564;-65
2022/01/02 03:40:08;;;;;;;14.13;5.35;;;;;;;10.23;93.46;101568.47;5061468;28;20016;-66
2022/01/02 03:42:34;;;;;;;14.13;5.60;;;;;;;10.22;93.61;101566.75;5063401;28;20052;-65
2022/01/02 03:45:00;;;;;;;13.02;5.22;;;;;;;10.22;93.67;101556.13;5064230;28;20078;-65
2022/01/02 03:47:26;;;;;;;15.57;5.18;;;;;;;10.22;93.69;101553.47;5063108;28;20024;-65
2022/01/02 03:49:51;;;;;;;13.13;5.70;;;;;;;10.20;93.61;101548.25;5063781;28;20386;-65
2022/01/02 03:52:17;;;;;;;13.27;5.55;;;;;;;10.21;93.84;101544.66;5065910;28;20093;-66
2022/01/02 03:54:42;;;;;;;13.50;5.35;;;;;;;10.21;93.71;101535.81;5066239;28;20383;-67
2022/01/02 03:57:08;;;;;;;11.55;5.05;;;;;;;10.22;93.65;101537.53;5063532;28;20040;-65
2022/01/02 03:59:33;;;;;;;12.05;5.70;;;;;;;10.22;93.79;101529.59;5063005;28;20040;-64
2022/01/02 04:01:58;;;;;;;13.38;5.35;;;;;;;10.22;93.46;101522.47;5064552;28;20029;-65
2022/01/02 04:04:23;;;;;;;13.75;4.80;;;;;;;10.24;93.36;101514.41;5066871;28;20049;-66
2022/01/02 04:06:49;;;;;;;15.48;5.05;;;;;;;10.23;93.17;101508.25;5065374;28;20063;-65
2022/01/02 04:09:14;;;;;;;15.77;4.97;;;;;;;10.28;92.94;101492.03;5064346;28;20035;-65
2022/01/02 04:11:39;;;;;;;14.73;5.30;;;;;;;10.31;92.76;101497.13;5067672;28;20035;-66
2022/01/02 04:14:05;;;;;;;14.43;4.88;;;;;;;10.31;92.93;101499.78;5065162;28;20033;-66
2022/01/02 04:16:30;;;;;;;8.25;4.40;;;;;;;10.29;92.63;101499.91;5065916;28;20047;-66
2022/01/02 04:18:56;;;;;;;13.73;4.60;;;;;;;10.30;92.92;101498.91;5063861;28;20033;-67
2022/01/02 04:21:21;;;;;;;14.38;5.30;;;;;;;10.30;92.63;101504.22;5065845;28;20092;-66
2022/01/02 04:23:46;;;;;;;15.52;4.68;;;;;;;10.31;92.89;101505.09;5068464;28;20025;-66
2022/01/02 04:26:11;;;;;;;11.43;4.90;;;;;;;10.29;92.72;101509.63;5068365;28;20076;-65
2022/01/02 04:28:37;;;;;;;12.20;4.60;;;;;;;10.30;92.88;101511.34;5066138;28;20025;-66
2022/01/02 04:31:02;;;;;;;16.42;4.68;;;;;;;10.31;93.14;101508.59;5066523;28;20044;-65
2022/01/02 04:33:27;;;;;;;15.25;4.80;;;;;;;10.29;93.28;101501.69;5068303;28;20033;-66
2022/01/02 04:35:52;;;;;;;15.70;5.32;;;;;;;10.29;93.19;101496.38;5068624;28;20051;-66
2022/01/02 04:38:18;;;;;;;12.02;4.38;;;;;;;10.28;93.26;101500.00;5064224;28;20483;-66
2022/01/02 04:40:43;;;;;;;10.38;4.90;;;;;;;10.27;93.48;101490.31;5061823;28;20029;-65
2022/01/02 04:43:08;;;;;;;11.25;4.90;;;;;;;10.24;93.72;101480.75;5063700;28;20476;-65
2022/01/02 04:45:34;;;;;;;10.82;4.80;;;;;;;10.23;93.86;101473.72;5062084;28;20036;-65
2022/01/02 04:47:59;;;;;;;12.73;5.00;;;;;;;10.21;93.74;101464.16;5060863;28;20025;-65
2022/01/02 04:50:25;;;;;;;10.13;5.25;;;;;;;10.18;94.19;101458.09;5062047;28;20112;-66
2022/01/02 04:52:51;;;;;;;18.23;5.40;;;;;;;10.17;93.84;101455.53;5059613;28;20040;-65
2022/01/02 04:55:16;;;;;;;13.48;5.10;;;;;;;10.16;94.15;101444.09;5058948;28;20029;-65
2022/01/02 04:57:42;;;;;;;15.00;4.93;;;;;;;10.15;94.16;101434.41;5054921;28;20191;-66
2022/01/02 05:00:08;;;;;;;15.25;4.78;;;;;;;10.13;94.36;101431.00;5057537;28;20044;-65
2022/01/02 05:02:33;;;;;;;10.18;5.25;;;;;;;10.11;94.39;101403.72;5058071;28;20373;-66
2022/01/02 05:04:59;;;;;;;12.38;4.97;;;;;;;10.11;94.48;101402.88;5058524;28;20028;-65
2022/01/02 05:07:24;;;;;;;13.98;4.85;;;;;;;10.09;94.46;101407.41;5059641;28;20428;-65
2022/01/02 05:09:49;;;;;;;9.43;5.00;;;;;;;10.08;94.57;101398.59;5057980;28;20043;-65
2022/01/02 05:12:14;;;;;;;10.63;4.50;;;;;;;10.07;94.06;101388.09;5057163;28;20464;-65
2022/01/02 05:14:40;;;;;;;12.18;4.72;;;;;;;10.05;94.82;101390.84;5058742;28;20021;-65
2022/01/02 05:17:05;;;;;;;13.60;4.80;;;;;;;10.06;94.13;101381.94;5064457;28;20047;-65
2022/01/02 05:19:31;;;;;;;13.20;4.32;;;;;;;10.05;94.63;101372.25;5060493;28;20040;-65
2022/01/02 05:21:56;;;;;;;11.60;4.75;;;;;;;10.06;94.58;101389.03;5054706;28;20017;-65
2022/01/02 05:24:21;;;;;;;10.07;4.53;;;;;;;10.04;94.75;101380.31;5056326;28;20029;-65
2022/01/02 05:26:47;;;;;;;7.40;4.55;;;;;;;10.02;94.81;101369.81;5057072;28;20033;-64
2022/01/02 05:29:12;;;;;;;12.57;5.10;;;;;;;10.02;94.72;101367.16;5055148;28;20025;-65
2022/01/02 05:31:37;;;;;;;12.65;4.82;;;;;;;10.01;94.88;101368.13;5054497;28;20114;-64
2022/01/02 05:34:03;;;;;;;15.55;5.13;;;;;;;10.01;94.69;101365.47;5055285;28;20040;-66
2022/01/02 05:36:28;;;;;;;11.77;4.78;;;;;;;10.00;94.78;101355.78;5055855;28;20036;-64
2022/01/02 05:38:53;;;;;;;9.35;4.65;;;;;;;9.99;94.80;101354.06;5053909;28;20037;-64
2022/01/02 05:41:19;;;;;;;12.85;5.25;;;;;;;9.98;95.10;101357.72;5055142;28;20108;-64
2022/01/02 05:43:44;;;;;;;11.07;4.70;;;;;;;9.99;94.75;101348.78;5054773;28;20099;-65
2022/01/02 05:46:09;;;;;;;9.43;4.85;;;;;;;9.95;95.16;101336.69;5056080;28;20029;-64
2022/01/02 05:48:36;;;;;;;9.25;4.45;;;;;;;9.96;95.23;101343.69;5055245;28;20043;-64
2022/01/02 05:51:01;;;;;;;14.45;5.10;;;;;;;9.95;95.06;101334.84;5056608;28;20475;-64
2022/01/02 05:53:28;;;;;;;12.23;5.10;;;;;;;9.95;95.20;101331.38;5055091;28;20067;-64
2022/01/02 05:55:53;;;;;;;10.93;4.85;;;;;;;9.94;95.10;101322.56;5054874;28;20039;-63
2022/01/02 05:58:19;;;;;;;12.40;4.75;;;;;;;9.93;94.86;101306.75;5054796;28;20522;-63
2022/01/02 06:00:44;;;;;;;8.85;5.18;;;;;;;9.93;94.85;101296.13;5056362;28;20033;-64
2022/01/02 06:03:09;;;;;;;13.80;4.85;;;;;;;9.91;94.42;101280.31;5057717;28;20041;-67
2022/01/02 06:05:34;;;;;;;10.32;4.43;;;;;;;9.92;94.74;101283.81;5060714;28;20076;-66
2022/01/02 06:08:00;;;;;;;10.82;4.32;;;;;;;9.92;94.47;101283.81;5068365;28;20029;-65
2022/01/02 06:10:25;;;;;;;9.43;4.70;;;;;;;9.91;94.45;101271.47;5064864;28;20430;-64
2022/01/02 06:12:50;;;;;;;9.30;4.15;;;;;;;9.90;94.46;101278.59;5062233;28;20303;-65
2022/01/02 06:15:16;;;;;;;8.95;4.10;;;;;;;9.90;94.39;101267.13;5063227;28;20037;-65
2022/01/02 06:17:41;;;;;;;8.80;3.95;;;;;;;9.89;94.23;101258.34;5063617;28;20120;-64
2022/01/02 06:20:07;;;;;;;12.23;4.30;;;;;;;9.88;94.19;101256.63;5061638;28;20065;-65
2022/01/02 06:22:32;;;;;;;11.02;4.13;;;;;;;9.88;94.30;101239.88;5060599;28;20526;-65
2022/01/02 06:24:57;;;;;;;11.23;4.90;;;;;;;9.88;94.00;101229.25;5058017;28;20043;-64
2022/01/02 06:27:22;;;;;;;8.48;4.07;;;;;;;9.86;94.18;101217.88;5058323;28;20036;-65
2022/01/02 06:29:48;;;;;;;9.20;3.92;;;;;;;9.88;93.75;101206.22;5060957;28;20053;-64
2022/01/02 06:32:13;;;;;;;12.75;4.40;;;;;;;9.86;93.92;101207.25;5063760;28;20128;-64
2022/01/02 06:34:38;;;;;;;7.43;4.20;;;;;;;9.86;93.94;101191.34;5060719;28;20056;-65
2022/01/02 06:37:04;;;;;;;7.63;4.20;;;;;;;9.85;93.57;101174.59;5061389;28;20032;-64
2022/01/02 06:39:29;;;;;;;9.38;4.00;;;;;;;9.83;93.55;101173.84;5061685;28;20029;-64
2022/01/02 06:41:54;;;;;;;7.53;3.80;;;;;;;9.82;93.18;101167.72;5064651;28;20052;-65
2022/01/02 06:44:19;;;;;;;12.60;3.83;;;;;;;9.84;92.80;101146.34;5066369;28;20498;-64
2022/01/02 06:46:45;;;;;;;9.00;3.92;;;;;;;9.81;92.87;101130.66;5064206;28;20025;-65
2022/01/02 06:49:10;;;;;;;7.28;3.35;;;;;;;9.80;92.40;101123.66;5065534;28;20044;-64
2022/01/02 06:51:35;;;;;;;7.20;3.50;;;;;;;9.80;92.72;101126.31;5066119;28;20055;-64
2022/01/02 06:54:00;;;;;;;10.13;3.88;;;;;;;9.79;92.83;101127.25;5066734;28;20029;-64
2022/01/02 06:56:26;;;;;;;8.50;3.78;;;;;;;9.78;92.72;101126.41;5068393;28;20088;-66
2022/01/02 06:58:51;;;;;;;10.43;3.63;;;;;;;9.78;92.16;101118.44;5068257;28;20033;-65
2022/01/02 07:01:16;;;;;;;8.10;3.60;;;;;;;9.80;91.88;101105.91;5066467;28;20040;-63
2022/01/02 07:03:41;;;;;;;10.75;4.22;;;;;;;9.82;91.94;101103.16;5065859;28;20056;-65
2022/01/02 07:06:07;;;;;;;10.93;3.92;;;;;;;9.82;91.73;101114.66;5067758;28;20052;-63
2022/01/02 07:08:32;;;;;;;8.32;3.47;;;;;;;9.81;92.21;101104.13;5069875;28;20037;-64
2022/01/02 07:10:57;;;;;;;8.60;3.70;;;;;;;9.82;91.49;101108.47;5069229;28;20032;-65
2022/01/02 07:13:23;;;;;;;6.93;3.45;;;;;;;9.85;90.90;101118.03;5065360;28;20651;-63
2022/01/02 07:15:49;;;;;;;5.65;2.90;;;;;;;9.86;90.83;101115.28;5065518;28;20031;-64
2022/01/02 07:18:15;;;;;;;4.90;3.33;;;;;;;9.87;90.88;101129.38;5066258;28;20499;-64
2022/01/02 07:20:40;;;;;;;8.15;3.33;;;;;;;9.88;90.72;101134.59;5067453;28;20041;-65
2022/01/02 07:23:05;;;;;;;6.45;3.30;;;;;;;9.89;90.78;101131.00;5063147;28;20037;-64
2022/01/02 07:25:31;;;;;;;7.75;3.78;;;;;;;9.89;90.10;101120.38;5062733;28;20020;-64
2022/01/02 07:27:56;;;;;;;6.22;3.10;;;;;;;9.89;90.35;101101.81;5062709;28;20025;-65
2022/01/02 07:30:21;;;;;;;7.28;3.20;;;;;;;9.89;90.07;101093.84;5064467;28;20326;-65
2022/01/02 07:32:47;;;;;;;6.25;3.17;;;;;;;9.89;90.56;101092.97;5066144;28;20036;-65
2022/01/02 07:35:12;;;;;;;4.95;3.58;;;;;;;9.86;90.03;101087.88;5069295;28;20037;-65
2022/01/02 07:37:37;;;;;;;5.30;3.30;;;;;;;9.86;90.05;101095.84;5062846;28;20044;-65
2022/01/02 07:40:04;;;;;;;9.40;4.20;;;;;;;9.86;90.18;101093.19;5074230;28;20071;-64
2022/01/02 07:42:30;;;;;;;5.70;3.00;;;;;;;9.90;89.21;101095.53;5071545;28;20415;-64
2022/01/02 07:44:55;;;;;;;6.82;3.15;;;;;;;9.93;88.98;101086.50;5068263;28;20047;-64
2022/01/02 07:47:20;;;;;;;5.32;3.42;;;;;;;9.95;88.61;101108.47;5067543;28;20739;-64
2022/01/02 07:49:45;;;;;;;5.90;3.25;;;;;;;9.96;88.68;101113.69;5061521;28;20067;-66
2022/01/02 07:52:11;;;;;;;6.47;3.60;;;;;;;9.96;89.42;101104.88;5059796;28;20124;-64
2022/01/02 07:54:37;;;;;;;9.70;3.60;;;;;;;9.96;89.01;101121.63;5055243;28;20029;-65
2022/01/02 07:57:03;;;;;;;6.40;3.00;;;;;;;9.94;89.79;101126.22;5065975;28;20036;-65
2022/01/02 07:59:28;;;;;;;9.60;3.53;;;;;;;9.95;89.77;101135.00;5059833;28;20108;-64
2022/01/02 08:01:53;;;;;;;7.22;3.25;;;;;;;9.94;89.81;101139.47;5055579;28;20651;-64
2022/01/02 08:04:19;;;;;;;8.38;3.70;;;;;;;9.94;89.84;101126.22;5060313;28;20048;-64
2022/01/02 08:06:44;;;;;;;4.70;3.00;;;;;;;9.93;89.78;101126.31;5059644;28;20037;-64
2022/01/02 08:09:10;;;;;;;6.07;3.65;;;;;;;9.95;89.08;101116.44;5063053;28;20037;-65
2022/01/02 08:11:35;;;;;;;5.88;3.10;;;;;;;9.96;89.08;101126.94;5064319;28;20536;-64
2022/01/02 08:14:00;;;;;;;6.53;3.75;;;;;;;9.96;89.28;101129.59;5059379;28;20048;-65
2022/01/02 08:16:26;;;;;;;7.05;3.53;;;;;;;9.98;89.19;101142.75;5059908;28;20035;-65
2022/01/02 08:18:51;;;;;;;7.15;3.50;;;;;;;9.96;89.32;101137.56;5061060;28;20045;-65
2022/01/02 08:21:16;;;;;;;7.20;3.17;;;;;;;9.98;89.03;101142.75;5058680;28;20032;-65
2022/01/02 08:23:42;;;;;;;8.32;3.42;;;;;;;10.00;88.78;101154.09;5060129;28;20026;-65
2022/01/02 08:26:07;;;;;;;6.00;3.22;;;;;;;10.01;87.90;101134.59;5062934;28;20119;-64
2022/01/02 08:28:32;;;;;;;6.00;3.63;;;;;;;10.02;88.12;101120.34;5060204;28;20037;-65
2022/01/02 08:30:58;;;;;;;6.00;3.13;;;;;;;10.02;88.54;101107.09;5054067;28;20050;-63
2022/01/02 08:33:23;;;;;;;8.63;3.20;;;;;;;10.04;88.04;101134.34;5064135;28;20041;-65
2022/01/02 08:35:48;;;;;;;6.05;3.00;;;;;;;10.07;87.40;101136.78;5065428;28;20089;-66
2022/01/02 08:38:15;;;;;;;6.65;3.30;;;;;;;10.08;87.46;101135.84;5065963;28;20045;-66
2022/01/02 08:40:41;;;;;;;6.18;3.00;;;;;;;10.10;86.88;101133.09;5068581;28;20041;-65
2022/01/02 08:43:07;;;;;;;6.93;2.92;;;;;;;10.10;86.98;101133.09;5056656;28;20063;-64
2022/01/02 08:45:34;;;;;;;6.50;3.20;;;;;;;10.15;85.64;101142.41;5063508;28;20033;-65
2022/01/02 08:47:59;;;;;;;6.53;3.72;;;;;;;10.18;85.82;101134.25;5065057;28;20052;-64
2022/01/02 08:50:25;;;;;;;5.57;3.45;;;;;;;10.24;84.79;101148.03;5068210;28;20064;-65
2022/01/02 08:52:50;;;;;;;5.22;3.30;;;;;;;10.28;85.16;101142.41;5075168;28;20040;-64
2022/01/02 08:55:15;;;;;;;7.47;3.78;;;;;;;10.29;84.60;101152.09;5061123;28;20037;-65
2022/01/02 08:57:41;;;;;;;5.20;3.35;;;;;;;10.31;84.66;101144.84;5063868;28;20060;-65
2022/01/02 09:00:08;;;;;;;7.20;3.63;;;;;;;10.34;83.88;101147.34;5061526;28;20041;-65
2022/01/02 09:02:33;;;;;;;6.90;3.63;;;;;;;10.38;83.47;101145.31;5062411;28;20033;-66
2022/01/02 09:04:59;;;;;;;7.65;4.10;;;;;;;10.39;84.48;101144.31;5060914;28;20044;-65
2022/01/02 09:07:24;;;;;;;9.57;4.05;;;;;;;10.39;84.49;101131.06;5065294;28;20037;-65
2022/01/02 09:09:49;;;;;;;6.55;3.20;;;;;;;10.40;84.18;101135.41;5063130;28;20479;-67
2022/01/02 09:12:15;;;;;;;7.40;3.90;;;;;;;10.42;84.44;101130.00;5067102;28;20037;-64
2022/01/02 09:14:41;;;;;;;7.72;3.90;;;;;;;10.44;84.16;101134.25;5066313;28;20037;-64
2022/01/02 09:17:07;;;;;;;10.70;4.10;;;;;;;10.49;83.43;101139.22;5059778;28;20490;-64
2022/01/02 09:19:32;;;;;;;6.88;3.90;;;;;;;10.52;84.15;101131.03;5065662;28;20053;-64
2022/01/02 09:21:58;;;;;;;8.52;4.25;;;;;;;10.54;83.78;101126.44;5070769;28;20028;-64
2022/01/02 09:24:23;;;;;;;7.80;3.95;;;;;;;10.59;83.71;101129.66;5067640;28;20057;-66
2022/01/02 09:26:48;;;;;;;8.77;3.85;;;;;;;10.67;83.31;101134.38;5052898;28;20101;-65
2022/01/02 09:29:13;;;;;;;9.38;4.65;;;;;;;10.77;84.34;101131.91;5054276;28;20105;-64
2022/01/02 09:31:40;;;;;;;6.28;4.25;;;;;;;10.87;83.79;101132.94;5056759;28;20068;-64
2022/01/02 09:34:05;;;;;;;7.53;4.13;;;;;;;11.00;83.74;101147.03;5064754;28;20032;-64
2022/01/02 09:36:30;;;;;;;12.38;4.75;;;;;;;11.10;82.23;101134.75;5068356;28;20091;-64
2022/01/02 09:38:57;;;;;;;7.20;4.50;;;;;;;11.21;81.91;101131.31;5071564;28;20118;-67
2022/01/02 09:41:22;;;;;;;7.22;3.75;;;;;;;11.26;81.85;101136.28;5080266;28;20075;-65
2022/01/02 09:43:48;;;;;;;6.40;3.85;;;;;;;11.30;81.43;101141.22;5069146;28;20037;-67
2022/01/02 09:46:24;;;;;;;7.75;4.05;;;;;;;11.32;81.65;101149.09;5071333;28;20044;-68
2022/01/02 09:48:51;;;;;;;10.50;4.90;;;;;;;11.33;81.08;101150.81;5062510;28;20048;-69
2022/01/02 09:51:19;;;;;;;8.73;4.60;;;;;;;11.34;80.78;101154.31;5067698;28;20075;-66
2022/01/02 09:53:46;;;;;;;8.85;4.20;;;;;;;11.34;80.80;101159.63;5056090;28;20063;-66
2022/01/02 09:56:11;;;;;;;9.60;4.55;;;;;;;11.33;80.34;101153.47;5058251;28;20036;-66
2022/01/02 09:58:38;;;;;;;6.32;4.30;;;;;;;11.36;80.55;101149.72;5056355;28;20021;-66
2022/01/02 10:01:03;;;;;;;5.20;3.83;;;;;;;11.39;80.77;101155.66;5059816;28;20029;-67
2022/01/02 10:03:41;;;;;;;9.52;4.30;;;;;;;11.46;81.00;101159.56;5056495;28;20097;-67
2022/01/02 10:06:07;;;;;;;6.90;4.20;;;;;;;11.50;80.25;101149.53;5067642;28;20039;-67
2022/01/02 10:08:36;;;;;;;7.35;4.50;;;;;;;11.57;79.98;101166.72;5060747;28;20394;-67
2022/01/02 10:11:12;;;;;;;8.30;4.20;;;;;;;11.67;80.33;101169.53;5070826;28;20110;-66
2022/01/02 10:13:50;;;;;;;12.57;3.83;;;;;;;11.71;80.54;101172.78;5053284;28;20035;-66
2022/01/02 10:16:28;;;;;;;11.43;4.15;;;;;;;11.69;79.91;101178.25;5064165;28;20084;-66
2022/01/02 10:18:55;;;;;;;9.25;4.25;;;;;;;11.69;78.77;101169.41;5067119;28;20515;-68
2022/01/02 10:21:32;;;;;;;13.07;4.20;;;;;;;11.68;79.65;101163.25;5063233;28;20127;-64
2022/01/02 10:24:27;;;;;;;7.43;4.50;;;;;;;11.68;79.92;101159.75;5068867;28;20051;-65
2022/01/02 10:27:12;;;;;;;7.68;4.15;;;;;;;11.66;80.02;101155.38;5065383;28;20033;-66
2022/01/02 10:29:56;;;;;;;6.70;4.15;;;;;;;11.68;80.66;101151.78;5070381;28;20063;-66
2022/01/02 10:32:28;;;;;;;11.73;4.38;;;;;;;11.68;79.90;101146.44;5069549;28;20033;-64
2022/01/02 10:35:13;;;;;;;9.55;4.63;;;;;;;11.69;79.74;101145.47;5072381;28;20051;-63
2022/01/02 10:37:41;;;;;;;8.48;4.00;;;;;;;11.67;79.60;101134.94;5072116;28;20033;-66
2022/01/02 10:40:28;;;;;;;10.80;4.97;;;;;;;11.67;80.19;101129.63;5072662;28;20017;-64
2022/01/02 10:42:53;;;;;;;12.80;4.55;;;;;;;11.70;80.57;101141.84;5066488;28;20040;-64
2022/01/02 10:45:39;;;;;;;10.63;4.18;;;;;;;11.71;80.37;101143.53;5071166;28;20547;-68
2022/01/02 10:48:08;;;;;;;10.35;4.38;;;;;;;11.68;80.09;101146.44;5066928;28;20078;-66
2022/01/02 10:50:34;;;;;;;13.23;4.25;;;;;;;11.70;79.41;101142.69;5069026;28;20044;-66
2022/01/02 10:53:14;;;;;;;9.48;4.00;;;;;;;11.70;79.99;101132.03;5070917;28;20097;-65
2022/01/02 10:55:45;;;;;;;12.07;3.78;;;;;;;11.70;79.94;101132.03;5072604;28;20033;-64
2022/01/02 10:58:12;;;;;;;6.28;3.42;;;;;;;11.72;80.33;101140.75;5069189;28;20112;-65
2022/01/02 11:00:38;;;;;;;8.52;3.78;;;;;;;11.71;79.95;101149.72;5069652;28;20033;-64
2022/01/02 11:03:05;;;;;;;9.73;4.03;;;;;;;11.70;80.00;101144.50;5065151;28;20037;-67
2022/01/02 11:05:31;;;;;;;7.68;3.92;;;;;;;11.72;80.31;101148.72;5066237;28;20070;-65
2022/01/02 11:08:00;;;;;;;13.48;4.22;;;;;;;11.74;79.86;101136.19;5065449;28;20044;-66
2022/01/02 11:10:27;;;;;;;8.80;4.10;;;;;;;11.77;80.66;101137.75;5066954;28;20022;-65
2022/01/02 11:12:54;;;;;;;12.27;4.70;;;;;;;11.80;80.28;101133.03;5060664;28;20068;-65
2022/01/02 11:15:24;;;;;;;8.57;3.83;;;;;;;11.85;79.86;101140.66;5060400;28;20041;-65
2022/01/02 11:17:51;;;;;;;8.13;3.80;;;;;;;11.91;79.70;101131.38;5056963;28;20040;-66
2022/01/02 11:20:28;;;;;;;7.38;3.70;;;;;;;11.99;79.82;101139.59;5066672;28;20060;-65
2022/01/02 11:22:59;;;;;;;9.77;4.20;;;;;;;12.04;79.48;101134.81;5062982;28;20064;-64
2022/01/02 11:25:50;;;;;;;7.25;3.53;;;;;;;12.11;80.32;101132.50;5058130;28;20033;-65
2022/01/02 11:28:40;;;;;;;8.38;4.28;;;;;;;12.16;79.74;101141.81;5067482;28;20104;-65
2022/01/02 11:31:09;;;;;;;7.32;3.85;;;;;;;12.18;79.07;101131.88;5067794;28;20062;-65